Aeroporto :
LOGIN :

Iscrizione | Disclaimer

   EN    FR    IT 

 










Sommario :    VFR   VFR Marginale   IFR   IFR Intensivo   IFR Molto Intensivo
Visibilità : 
Base nubi : 
>= 8 km
>= 3000ft
5 / 8 km
1000 / 3000 ft
1500m / 5 km
500 / 1000 ft
800 / 1500m
200 / 500 ft
< 800m
< 200 ft
Simboli :   Temporali  Nebbia  Neve Forte  Precipitazioni Forti  Vento > 20 kt
SIGMETs :   Varie  Temporali  Ghiacco  Turbolenza  Onda orograficha  Ceneri Vulcaniche






- Altitudine del aeroporto : 154 ft
- Codice IATA : SZZ


EPSC - Szczecin Goleniow

ULTIMO METAR :
  • 110630Z 16011KT CAVOK 01/M02 Q1013

METARs OBSOLETI :
  • 110600Z 16011KT CAVOK 01/M02 Q1013
  • 110530Z 16012KT CAVOK 01/M02 Q1013
  • 110500Z 16013KT CAVOK 01/M02 Q1014
  • 110430Z 15014KT CAVOK 01/M02 Q1014
  • 110400Z 16012KT CAVOK 00/M02 Q1015

TAF TAF EPSC
Valido dal 11 a 06 ore il 12 a 06 ore UTC


110530Z 1106/1206 18012KT CAVOK
PROB40
TEMPO 1106/1114 18017G27KT
BECMG 1122/1124 -RA BKN015
BECMG 1200/1202 4000 -RASN BKN007
TEMPO 1200/1206 2000 SNRA BKN003
PROB40
TEMPO 1200/1206 1400 -FZRA



MetMap, La meteo Aeronautica in un colpo d'occhio ! - Copyright ORBIFLY Dicembre 2007 - Disclaimer

ORBIFLY MET'MAP TEAM :

Programmazione e sviluppo : Alexandra Zaïnal
Concezione : Baudouin d'Aumeries
Aiuto per la programmazione : Marc-Olivier Méhu
Supporto tecnico e logistico : Manuel Goepfert
Aiuto per la traduzione : Arnaldo La Scala

Contatto : metmap@orbifly.com




FONTI E CREDITI :

   NOAA